Latest Coastal Weather Observations for Orbost

IDV60701

Issued at 9:02 pm EDT Monday 24 February 2020 (issued every 10 minutes, with the page automatically refreshed every 10 minutes)

About coastal observations | Map of coastal stations | Coastal observations for VIC | Marine services | Other Formats
Station Details ID: 084145 Name: ORBOST Lat: -37.69 Lon: 148.47 Height: 62.65 m
Data from the previous 72 hours. | See also: Recent months at Orbost
Date/Time
EDT
Wind Sea
Height
m
Swell Vis
km
Cloud Weather Temp
°C
Press
hPa
Rain since
9am
mm
Dir  Spd
kts
Gust
kts
Height
m
Period
s
Dir
24/09:00pm NE 2 3 - - - - - - - 19.9 - -
24/08:30pm CALM 0 1 - - - - - - - 20.0 1018.3 0.0
24/08:00pm NE 1 3 - - - - - - - 20.1 1018.1 0.0
24/07:30pm SW 4 8 - - - - - - - 20.5 1018.2 0.0
24/07:00pm W 3 4 - - - - - - - 21.9 1018.1 0.0
24/06:30pm WNW 3 4 - - - - - - - 22.3 1017.7 0.0
24/06:00pm W 2 2 - - - - - - - 22.7 1017.5 0.0
24/05:30pm NNW 1 3 - - - - - - - 22.6 1017.5 0.0
24/05:00pm SE 4 6 - - - - - - - 22.2 1017.5 0.0
24/04:30pm SE 2 8 - - - - - - - 21.9 1017.5 0.0
24/04:00pm SSE 5 7 - - - - - - - 21.5 1017.2 0.0
24/03:30pm SE 3 5 - - - - - - - 21.9 1017.9 0.0
24/03:00pm SE 2 4 - - - - - - - 24.1 1017.8 0.0
24/02:30pm SE 4 6 - - - - - - - 23.8 1017.6 0.0
24/02:00pm SE 5 7 - - - - - - - 24.1 1017.9 0.0
24/01:30pm SE 4 7 - - - - - - - 23.7 1018.4 0.0
24/01:00pm SE 5 8 - - - - - - - 25.4 1018.3 0.0
24/12:30pm SE 4 6 - - - - - - - 24.3 1018.7 0.0
24/12:00pm SE 4 5 - - - - - - - 24.2 1019.2 0.0
24/11:30am SSE 3 5 - - - - - - - 24.8 1019.3 0.0
24/11:00am S 3 5 - - - - - - - 24.2 1019.5 0.0
24/10:30am SW 2 3 - - - - - - - 23.8 1019.6 0.0
24/10:00am SW 3 5 - - - - - - - 22.2 1019.7 0.0
24/09:30am SW 4 7 - - - - - - - 20.9 1019.7 0.0
24/09:00am S 2 4 - - - - - - - 20.2 1019.3 0.0
24/08:30am CALM 0 0 - - - - - - - 20.0 1019.1 -
24/08:00am CALM 0 2 - - - - - - - 19.9 1019.0 -
24/07:30am CALM 0 0 - - - - - - - 19.3 1018.7 -
24/07:00am CALM 0 0 - - - - - - - 18.6 1018.4 -
24/06:30am CALM 0 0 - - - - - - - 18.5 1018.3 -
24/06:00am WNW 2 3 - - - - - - - 19.0 1018.1 -
24/05:30am NW 2 4 - - - - - - - 18.8 1017.9 -
24/05:00am NW 2 4 - - - - - - - 19.4 1017.9 -
24/04:30am WNW 3 6 - - - - - - - 19.8 1017.9 -
24/04:00am WSW 4 6 - - - - - - - 20.4 1017.6 -
24/03:30am CALM 0 3 - - - - - - - 21.9 1017.2 -
24/03:00am CALM 0 1 - - - - - - - 22.5 1016.8 -
24/02:30am SW 2 3 - - - - - - - 22.0 1016.8 -
24/02:00am NNW 1 4 - - - - - - - 23.3 1016.6 -
24/01:30am CALM 0 0 - - - - - - - 23.1 1016.8 -
24/01:00am N 4 5 - - - - - - - 24.8 1016.9 -
24/12:30am N 3 4 - - - - - - - 23.9 1017.0 -
24/12:00am NNW 2 3 - - - - - - - 22.8 1017.0 -
 
Date/Time
EDT
Wind Sea
Height
m
Swell Vis
km
Cloud Weather Temp
°C
Press
hPa
Rain since
9am
mm
Dir  Spd
kts
Gust
kts
Height
m
Period
s
Dir
23/11:30pm NNW 2 3 - - - - - - - 23.2 1017.0 -
23/11:00pm NNW 2 3 - - - - - - - 23.2 1016.9 -
23/10:30pm N 3 3 - - - - - - - 23.4 1016.8 -
23/10:00pm CALM 0 0 - - - - - - - 24.9 1016.9 -
23/09:30pm CALM 0 1 - - - - - - - 24.3 1016.7 -
23/09:00pm E 4 7 - - - - - - - 26.6 1016.4 0.0
23/08:30pm E 4 7 - - - - - - - 26.7 1016.3 -
23/08:00pm ENE 1 3 - - - - - - - 25.9 1016.5 -
23/07:30pm S 2 2 - - - - - - - 26.7 1016.2 -
23/07:00pm SE 2 4 - - - - - - - 27.4 1015.8 -
23/06:30pm SE 3 6 - - - - - - - 28.6 1015.7 -
23/06:00pm SE 5 9 - - - - - - - 29.8 1015.5 -
23/05:30pm ESE 6 9 - - - - - - - 31.1 1015.5 -
23/05:00pm ESE 6 9 - - - - - - - 31.5 1015.6 -
23/04:30pm SE 6 10 - - - - - - - 31.3 1015.8 -
23/04:00pm SSE 5 9 - - - - - - - 31.1 1016.2 -
23/03:30pm SSE 7 11 - - - - - - - 30.2 1016.5 -
23/03:00pm SE 5 9 - - - - - - - 30.3 1017.0 -
23/02:30pm S 6 10 - - - - - - - 29.6 1017.5 -
23/02:00pm S 6 11 - - - - - - - 31.4 1017.8 -
23/01:30pm NW 2 5 - - - - - - - 31.3 1018.2 0.0
23/01:00pm WNW 3 7 - - - - - - - 31.1 1018.5 0.0
23/12:30pm W 5 9 - - - - - - - 30.5 1019.0 0.0
23/12:00pm WSW 5 8 - - - - - - - 29.7 1019.4 0.0
23/11:30am W 2 5 - - - - - - - 28.4 1019.9 0.0
23/11:00am SSW 2 3 - - - - - - - 26.3 1020.2 0.0
23/10:30am SSW 1 3 - - - - - - - 24.5 1020.3 0.0
23/10:00am SSW 1 3 - - - - - - - 23.1 1020.4 0.0
23/09:30am CALM 0 2 - - - - - - - 21.4 1020.5 0.0
23/09:00am CALM 0 0 - - - - - - - 19.1 1020.5 0.0
23/08:30am CALM 0 0 - - - - - - - 17.3 1020.5 0.0
23/08:00am E 2 3 - - - - - - - 16.9 1020.4 0.0
23/07:30am N 2 3 - - - - - - - 14.8 1020.5 0.0
23/07:00am CALM 0 2 - - - - - - - 13.5 1020.4 0.0
23/06:30am NNW 1 2 - - - - - - - 13.4 1019.9 0.0
23/06:00am NNW 1 3 - - - - - - - 13.4 1019.7 0.0
23/05:30am CALM 0 0 - - - - - - - 14.1 1019.6 0.0
23/05:00am CALM 0 0 - - - - - - - 14.1 1019.6 0.0
23/04:30am CALM 0 0 - - - - - - - 14.1 1019.9 0.0
23/04:00am N 1 2 - - - - - - - 14.1 1020.1 0.0
23/03:30am E 1 2 - - - - - - - 14.1 1020.0 0.0
23/03:00am CALM 0 0 - - - - - - - 14.6 1020.3 0.0
23/02:30am CALM 0 0 - - - - - - - 15.0 1020.6 0.0
23/02:00am CALM 0 0 - - - - - - - 15.2 1020.6 0.0
23/01:30am CALM 0 0 - - - - - - - 15.6 1020.8 0.0
23/01:00am CALM 0 0 - - - - - - - 15.9 1021.0 0.0
23/12:30am CALM 0 0 - - - - - - - 16.1 1021.2 0.0
23/12:00am CALM 0 0 - - - - - - - 15.9 1021.1 0.0
 
Date/Time
EDT
Wind Sea
Height
m
Swell Vis
km
Cloud Weather Temp
°C
Press
hPa
Rain since
9am
mm
Dir  Spd
kts
Gust
kts
Height
m
Period
s
Dir
22/11:30pm CALM 0 0 - - - - - - - 16.6 1021.2 0.0
22/11:00pm NNW 2 2 - - - - - - - 16.4 1021.2 0.0
22/10:30pm CALM 0 1 - - - - - - - 17.7 1021.1 0.0
22/10:00pm NNW 4 5 - - - - - - - 16.5 1021.3 0.0
22/09:30pm NNW 3 4 - - - - - - - 16.6 1021.2 0.0
22/09:00pm NW 2 3 - - - - - - - 16.8 1020.9 0.0
22/08:30pm NW 2 2 - - - - - - - 17.2 1020.6 0.0
22/08:00pm SSE 2 4 - - - - - - - 18.6 1020.5 0.0
22/07:30pm SE 3 5 - - - - - - - 19.7 1020.3 0.0
22/07:00pm SSE 5 8 - - - - - - - 20.7 1020.2 0.0
22/06:30pm SSE 6 11 - - - - - - - 21.2 1020.2 0.0
22/06:00pm SSE 6 12 - - - - - - - 22.3 1020.0 0.0
22/05:30pm SSE 7 14 - - - - - - - 22.6 1020.1 0.0
22/05:00pm SSE 7 11 - - - - - - - 22.6 1020.1 0.0
22/04:30pm SSE 7 11 - - - - - - - 23.2 1020.3 0.0
22/04:00pm SE 7 12 - - - - - - - 22.8 1020.5 0.0
22/03:30pm SE 7 11 - - - - - - - 22.8 1020.9 0.0
22/03:00pm SE 7 15 - - - - - - - 22.1 1021.2 0.0
22/02:30pm SE 7 12 - - - - - - - 22.4 1021.7 0.0
22/02:00pm SE 6 12 - - - - - - - 22.4 1022.0 0.0
22/01:30pm SSE 8 15 - - - - - - - 22.4 1022.1 0.0
22/01:00pm SE 7 16 - - - - - - - 21.8 1022.4 0.0
22/12:30pm S 7 11 - - - - - - - 22.8 1022.6 0.0
22/12:00pm SSW 3 5 - - - - - - - 22.8 1022.8 0.0
22/11:30am ENE 4 6 - - - - - - - 21.6 1023.0 0.0
22/11:00am NE 3 5 - - - - - - - 21.0 1023.2 0.0
22/10:30am E 4 8 - - - - - - - 20.5 1023.5 0.0
22/10:00am E 6 11 - - - - - - - 19.8 1023.8 0.0
22/09:30am E 5 8 - - - - - - - 19.1 1024.0 0.0
22/09:00am ENE 5 9 - - - - - - - 17.6 1023.8 0.0
22/08:30am ENE 2 4 - - - - - - - 16.2 1023.7 0.0
22/08:00am E 2 3 - - - - - - - 14.9 1023.3 0.0
22/07:30am E 1 2 - - - - - - - 13.9 1023.2 0.0
22/07:00am SE 1 2 - - - - - - - 13.7 1023.2 0.0
22/06:30am E 1 2 - - - - - - - 13.6 1022.9 0.0
22/06:00am E 2 3 - - - - - - - 13.7 1022.7 0.0
22/05:30am E 1 2 - - - - - - - 14.1 1022.7 0.0
22/05:00am NE 1 2 - - - - - - - 14.3 1022.7 0.0
22/04:30am NNE 2 2 - - - - - - - 14.4 1022.6 0.0
22/04:00am NE 2 3 - - - - - - - 14.4 1022.9 0.0
22/03:30am ENE 2 3 - - - - - - - 14.1 1023.3 0.0
22/03:00am NE 1 2 - - - - - - - 14.4 1023.3 0.0
22/02:30am N 2 3 - - - - - - - 14.0 1023.3 0.0
22/02:00am CALM 0 0 - - - - - - - 14.0 1023.4 0.0
22/01:30am CALM 0 0 - - - - - - - 14.7 1023.7 0.0
22/01:00am N 1 1 - - - - - - - 14.7 1023.7 0.0
22/12:30am N 2 2 - - - - - - - 14.8 1023.6 0.0
22/12:00am N 2 3 - - - - - - - 14.8 1023.4 0.0
 
Date/Time
EDT
Wind Sea
Height
m
Swell Vis
km
Cloud Weather Temp
°C
Press
hPa
Rain since
9am
mm
Dir  Spd
kts
Gust
kts
Height
m
Period
s
Dir
21/11:30pm - - - - - - - - - - 14.9 1023.5 0.0
21/11:00pm NW 1 1 - - - - - - - 15.0 1023.5 0.0
21/10:30pm NW 1 2 - - - - - - - 15.0 1023.2 0.0
21/10:00pm NW 1 1 - - - - - - - 15.0 1022.9 0.0
21/09:30pm WNW 1 2 - - - - - - - 15.0 1022.6 0.0

Other formats

Comma delimited format used in spreadsheet applications
http://www.bom.gov.au/fwo/IDV60701/IDV60701.95918.axf

JavaScript Object Notation format (JSON) in row-major order
http://www.bom.gov.au/fwo/IDV60701/IDV60701.95918.json

Data quality

Most of these data are generated automatically and are frequently updated. Quality checks on data are not normally performed. It is possible for incorrect values to appear. Refer to information at About Latest Weather Observations and please check the disclaimer before using these data.